Time;durP1;ratioP1;P1;durP2;ratioP2;P2;SDS_P1;SDS_P2;PMS_P1;PMS_P2;Temp;Humidity;BMP_temperature;BMP_pressure;BME280_temperature;BME280_humidity;BME280_pressure;Samples;Min_cycle;Max_cycle;Signal;HPM_P1;HPM_P2
2021/10/01 00:00:31;;;;;;;9.35;6.75;;;22.60;55.20;;;;;;6229687;28;80823;-63
2021/10/01 00:03:32;;;;;;;10.73;6.38;;;22.50;55.10;;;;;;6228890;28;83251;-62
2021/10/01 00:06:32;;;;;;;8.73;6.45;;;22.60;55.10;;;;;;6230667;28;81064;-63
2021/10/01 00:09:34;;;;;;;9.20;6.93;;;22.60;55.10;;;;;;6228707;27;80610;-62
2021/10/01 00:12:34;;;;;;;9.88;6.97;;;22.60;55.00;;;;;;6228542;28;80890;-63
2021/10/01 00:15:35;;;;;;;11.48;6.32;;;22.60;55.00;;;;;;6230210;27;80470;-62
2021/10/01 00:18:37;;;;;;;9.05;5.80;;;22.60;55.20;;;;;;6226361;28;81149;-62
2021/10/01 00:21:38;;;;;;;9.85;6.90;;;22.60;55.20;;;;;;6224277;27;80488;-62
2021/10/01 00:24:38;;;;;;;10.57;6.38;;;22.60;55.20;;;;;;6229522;28;81175;-62
2021/10/01 00:27:39;;;;;;;8.15;5.68;;;22.60;55.00;;;;;;6231822;28;80650;-62
2021/10/01 00:30:39;;;;;;;9.73;6.68;;;22.60;55.20;;;;;;6223386;28;80861;-62
2021/10/01 00:33:40;;;;;;;11.25;6.55;;;22.60;55.20;;;;;;6221846;28;83226;-62
2021/10/01 00:36:40;;;;;;;9.73;6.25;;;22.60;55.20;;;;;;6227209;28;80707;-65
2021/10/01 00:39:41;;;;;;;8.20;5.82;;;22.50;54.90;;;;;;6231921;28;83154;-62
2021/10/01 00:42:41;;;;;;;7.35;5.45;;;22.60;54.90;;;;;;6247434;27;80902;-62
2021/10/01 00:45:42;;;;;;;7.38;5.20;;;22.50;54.50;;;;;;6223349;28;83690;-62
2021/10/01 00:48:42;;;;;;;7.35;5.38;;;22.60;54.90;;;;;;6227707;27;80098;-62
2021/10/01 00:51:43;;;;;;;8.38;6.03;;;22.60;54.90;;;;;;6231613;28;80347;-63
2021/10/01 00:54:43;;;;;;;8.95;5.55;;;22.50;54.50;;;;;;6229137;27;80865;-62
2021/10/01 00:57:44;;;;;;;8.55;5.22;;;22.60;55.20;;;;;;6228765;28;80031;-62
2021/10/01 01:01:03;;;;;;;7.25;5.00;;;22.50;54.80;;;;;;6232839;28;83175;-62
2021/10/01 01:04:04;;;;;;;8.40;5.22;;;22.50;55.10;;;;;;6233565;27;81368;-62
2021/10/01 01:07:05;;;;;;;8.95;5.60;;;22.60;55.20;;;;;;6229121;28;83321;-62
2021/10/01 01:10:06;;;;;;;8.45;5.60;;;22.50;55.20;;;;;;6227343;28;82831;-62
2021/10/01 01:13:12;;;;;;;8.15;5.30;;;22.50;54.80;;;;;;6231069;28;81613;-61
2021/10/01 01:16:13;;;;;;;7.28;4.85;;;22.50;54.60;;;;;;6232620;28;83529;-62
2021/10/01 01:19:19;;;;;;;;;;;22.60;54.90;;;;;;6223764;28;83041;-62
2021/10/01 01:22:19;;;;;;;8.95;6.00;;;22.50;55.20;;;;;;6239268;28;82825;-61
2021/10/01 01:25:20;;;;;;;7.00;5.15;;;22.50;55.10;;;;;;6224148;27;80652;-62
2021/10/01 01:28:21;;;;;;;7.25;5.25;;;22.50;54.80;;;;;;6221752;28;82202;-61
2021/10/01 01:31:22;;;;;;;8.65;5.70;;;22.50;54.70;;;;;;6231540;28;83204;-62
2021/10/01 01:34:22;;;;;;;7.30;5.03;;;22.50;54.90;;;;;;6232115;28;80656;-62
2021/10/01 01:37:25;;;;;;;7.82;5.03;;;22.50;55.40;;;;;;6231946;28;81831;-62
2021/10/01 01:40:26;;;;;;;7.47;4.65;;;22.50;54.90;;;;;;6231367;28;81761;-62
2021/10/01 01:43:26;;;;;;;6.72;4.53;;;22.50;54.90;;;;;;6204898;28;87845;-62
2021/10/01 01:46:27;;;;;;;6.57;4.40;;;22.50;54.70;;;;;;6230963;28;81326;-62
2021/10/01 01:49:41;;;;;;;8.80;5.10;;;22.50;54.70;;;;;;6230460;28;81350;-62
2021/10/01 01:52:42;;;;;;;7.95;4.80;;;22.50;54.20;;;;;;6219622;28;86425;-63
2021/10/01 01:55:43;;;;;;;7.25;5.00;;;22.40;54.50;;;;;;6218774;28;83065;-62
2021/10/01 01:58:44;;;;;;;6.95;4.57;;;22.50;54.50;;;;;;6225817;27;82986;-62
2021/10/01 02:01:50;;;;;;;6.80;4.32;;;22.50;54.50;;;;;;6229974;27;83148;-62
2021/10/01 02:04:55;;;;;;;7.27;4.80;;;22.50;54.50;;;;;;6234150;27;82506;-62
2021/10/01 02:07:56;;;;;;;5.57;4.13;;;22.50;54.50;;;;;;6233089;27;81498;-62
2021/10/01 02:10:57;;;;;;;5.75;4.40;;;22.40;54.60;;;;;;6234886;27;81656;-62
2021/10/01 02:13:58;;;;;;;7.72;4.65;;;22.50;54.40;;;;;;6230040;28;82241;-62
2021/10/01 02:16:58;;;;;;;8.93;5.03;;;22.40;53.80;;;;;;6231430;27;82298;-63
2021/10/01 02:19:59;;;;;;;7.00;4.60;;;22.40;53.60;;;;;;6229307;27;83158;-62
2021/10/01 02:23:00;;;;;;;7.47;4.50;;;22.40;53.60;;;;;;6221902;28;83103;-63
2021/10/01 02:29:23;;;;;;;10.02;4.72;;;22.40;53.40;;;;;;6223193;28;82828;-62
2021/10/01 02:32:24;;;;;;;8.50;4.63;;;22.40;53.30;;;;;;6207429;28;81062;-62
2021/10/01 02:35:24;;;;;;;7.90;4.60;;;22.40;53.20;;;;;;6205462;28;82636;-62
2021/10/01 02:38:25;;;;;;;6.35;4.60;;;22.40;53.10;;;;;;6204569;28;84765;-62
2021/10/01 02:41:25;;;;;;;5.43;4.28;;;22.50;53.10;;;;;;6204380;28;82786;-62
2021/10/01 02:44:26;;;;;;;6.60;4.72;;;22.40;52.90;;;;;;6230723;28;81763;-62
2021/10/01 02:47:27;;;;;;;5.43;4.05;;;22.40;52.90;;;;;;6230306;27;80147;-62
2021/10/01 02:50:27;;;;;;;6.88;4.15;;;22.50;52.80;;;;;;6231436;27;81472;-63
2021/10/01 02:53:28;;;;;;;6.18;3.95;;;22.50;52.90;;;;;;6227258;27;83091;-62
2021/10/01 02:56:30;;;;;;;6.18;4.15;;;22.50;52.80;;;;;;6229285;27;80494;-62
2021/10/01 02:59:31;;;;;;;9.15;4.50;;;22.50;52.70;;;;;;6227474;28;83057;-62
2021/10/01 03:02:32;;;;;;;5.15;3.90;;;22.50;52.60;;;;;;6229663;27;81426;-62
2021/10/01 03:05:33;;;;;;;5.60;4.05;;;22.60;52.60;;;;;;6230690;27;80360;-62
2021/10/01 03:08:33;;;;;;;6.53;4.07;;;22.50;52.60;;;;;;6233601;27;80224;-62
2021/10/01 03:11:34;;;;;;;10.52;4.43;;;22.50;52.50;;;;;;6224084;27;83310;-62
2021/10/01 03:14:34;;;;;;;5.95;4.40;;;22.50;52.40;;;;;;6229660;27;83077;-62
2021/10/01 03:17:35;;;;;;;6.88;3.90;;;22.60;52.40;;;;;;6230495;28;83779;-62
2021/10/01 03:20:36;;;;;;;4.65;3.80;;;22.60;52.40;;;;;;6225408;27;81820;-62
2021/10/01 03:23:36;;;;;;;6.70;4.18;;;22.60;52.30;;;;;;6229301;28;86517;-62
2021/10/01 03:26:37;;;;;;;6.43;4.05;;;22.60;52.20;;;;;;6228560;28;81516;-62
2021/10/01 03:29:37;;;;;;;5.53;4.13;;;22.60;52.20;;;;;;6233170;28;83748;-62
2021/10/01 03:32:38;;;;;;;5.82;4.28;;;22.60;52.10;;;;;;6226689;27;83071;-61
2021/10/01 03:35:40;;;;;;;5.90;4.50;;;22.60;52.00;;;;;;6228687;28;83247;-62
2021/10/01 03:38:41;;;;;;;5.43;3.70;;;22.60;51.80;;;;;;6229878;28;83118;-63
2021/10/01 03:41:42;;;;;;;5.63;4.25;;;22.60;51.80;;;;;;6218330;28;83312;-63
2021/10/01 03:44:43;;;;;;;5.78;4.10;;;22.60;51.70;;;;;;6221147;28;83225;-64
2021/10/01 03:47:44;;;;;;;10.48;4.57;;;22.60;51.70;;;;;;6244942;27;81520;-64
2021/10/01 03:50:44;;;;;;;7.50;4.07;;;22.70;51.80;;;;;;6227424;28;82020;-63
2021/10/01 03:53:45;;;;;;;6.97;4.55;;;22.70;51.80;;;;;;6226844;28;82777;-64
2021/10/01 03:56:46;;;;;;;8.27;4.43;;;22.70;51.80;;;;;;6214474;28;84919;-62
2021/10/01 03:59:47;;;;;;;5.78;4.20;;;22.70;51.70;;;;;;6229823;28;82765;-62
2021/10/01 04:02:47;;;;;;;6.03;3.65;;;22.70;53.50;;;;;;6230350;27;80218;-63
2021/10/01 04:05:50;;;;;;;8.52;4.18;;;22.70;53.40;;;;;;6229237;28;81602;-63
2021/10/01 04:08:50;;;;;;;5.50;3.60;;;22.70;52.90;;;;;;6225556;28;83103;-64
2021/10/01 04:11:54;;;;;;;6.47;4.05;;;22.80;52.60;;;;;;6229425;28;83615;-64
2021/10/01 04:14:55;;;;;;;8.57;4.10;;;22.80;52.40;;;;;;6230781;28;82957;-64
2021/10/01 04:17:56;;;;;;;10.95;4.55;;;22.70;52.70;;;;;;6231481;28;83399;-64
2021/10/01 04:20:57;;;;;;;11.02;4.70;;;22.80;52.10;;;;;;6233003;28;82549;-63
2021/10/01 04:23:57;;;;;;;8.15;5.57;;;22.80;52.00;;;;;;6235424;27;80709;-62
2021/10/01 04:27:18;;;;;;;6.80;4.47;;;22.80;51.70;;;;;;6226214;27;81651;-64
2021/10/01 04:30:19;;;;;;;5.80;4.43;;;22.80;51.40;;;;;;6233967;28;83631;-64
2021/10/01 04:33:21;;;;;;;9.43;5.93;;;22.80;51.20;;;;;;6229947;28;82834;-64
2021/10/01 04:36:22;;;;;;;10.18;6.00;;;22.80;51.80;;;;;;6229219;28;82783;-65
2021/10/01 04:39:23;;;;;;;10.82;6.10;;;22.80;52.00;;;;;;6232859;28;81802;-65
2021/10/01 04:42:24;;;;;;;8.05;5.30;;;22.70;51.80;;;;;;6230516;28;82903;-65
2021/10/01 04:45:24;;;;;;;9.60;5.95;;;22.70;51.60;;;;;;6228831;28;83103;-66
2021/10/01 04:48:25;;;;;;;8.18;5.50;;;22.80;51.50;;;;;;6221857;28;82995;-64
2021/10/01 04:51:26;;;;;;;9.25;5.75;;;22.80;51.30;;;;;;6231256;28;81594;-64
2021/10/01 04:54:27;;;;;;;9.85;6.05;;;22.80;51.90;;;;;;6230474;28;82227;-64
2021/10/01 04:57:27;;;;;;;9.18;6.03;;;22.70;51.20;;;;;;6231485;28;81589;-64
2021/10/01 05:00:48;;;;;;;10.45;6.53;;;22.80;51.30;;;;;;6221467;28;81220;-63
2021/10/01 05:04:12;;;;;;;13.13;6.45;;;22.80;51.10;;;;;;6219120;28;80605;-64
2021/10/01 05:07:13;;;;;;;10.73;6.60;;;22.80;51.00;;;;;;6223182;28;80377;-64
2021/10/01 05:10:33;;;;;;;11.52;7.05;;;22.70;50.90;;;;;;6227480;28;80377;-63
2021/10/01 05:13:51;;;;;;;13.13;6.80;;;22.70;50.80;;;;;;6207526;28;83511;-63
2021/10/01 05:17:11;;;;;;;10.60;5.75;;;22.70;50.70;;;;;;6226766;28;80867;-63
2021/10/01 05:20:30;;;;;;;8.77;6.65;;;22.80;50.40;;;;;;6230513;27;80692;-63
2021/10/01 05:23:41;;;;;;;10.13;6.20;;;22.80;50.30;;;;;;6229878;28;82487;-63
2021/10/01 05:26:42;;;;;;;9.93;7.18;;;22.70;50.60;;;;;;6229137;28;82905;-63
2021/10/01 05:29:42;;;;;;;11.23;6.45;;;22.70;51.60;;;;;;6227201;27;83467;-63
2021/10/01 05:32:43;;;;;;;11.07;7.15;;;22.70;51.40;;;;;;6222212;28;82413;-62
2021/10/01 05:35:43;;;;;;;18.17;6.40;;;22.70;52.00;;;;;;6192946;27;1167507;-63
2021/10/01 05:38:44;;;;;;;12.02;7.03;;;22.70;50.80;;;;;;6233898;27;81089;-63
2021/10/01 05:41:45;;;;;;;10.43;6.60;;;22.70;52.00;;;;;;6230387;28;82365;-63
2021/10/01 05:44:45;;;;;;;9.80;6.05;;;22.70;51.90;;;;;;6222754;28;83083;-63
2021/10/01 05:48:05;;;;;;;8.13;5.80;;;22.70;52.70;;;;;;6230168;27;80503;-65
2021/10/01 05:51:24;;;;;;;12.02;5.72;;;22.70;51.90;;;;;;6233087;27;80246;-64
2021/10/01 05:54:54;;;;;;;10.07;6.43;;;22.70;54.10;;;;;;6220231;28;80621;-64
2021/10/01 05:58:23;;;;;;;10.38;6.30;;;22.70;54.00;;;;;;6228065;27;81242;-63
2021/10/01 06:01:27;;;;;;;7.88;6.13;;;22.70;54.10;;;;;;6225044;28;83191;-63
2021/10/01 06:04:30;;;;;;;11.43;6.15;;;22.70;55.40;;;;;;6229752;28;82102;-64
2021/10/01 06:07:30;;;;;;;8.48;5.65;;;22.60;55.70;;;;;;6230682;28;82210;-63
2021/10/01 06:10:31;;;;;;;9.93;5.68;;;22.70;55.20;;;;;;6229564;28;80660;-63
2021/10/01 06:13:31;;;;;;;149.32;47.83;;;22.70;55.20;;;;;;6230736;27;81599;-62
2021/10/01 06:16:32;;;;;;;1079.18;429.77;;;22.70;54.80;;;;;;6222583;27;83458;-64
2021/10/01 06:19:33;;;;;;;862.50;337.75;;;22.60;53.90;;;;;;6218355;28;85640;-62
2021/10/01 06:22:34;;;;;;;648.95;250.85;;;22.60;53.80;;;;;;6205783;28;88149;-63
2021/10/01 06:25:34;;;;;;;598.13;219.65;;;22.70;53.80;;;;;;6223084;27;85690;-62
2021/10/01 06:28:35;;;;;;;534.03;176.30;;;22.70;53.80;;;;;;6225384;27;85254;-63
2021/10/01 06:31:36;;;;;;;1159.07;476.38;;;22.70;53.80;;;;;;6223906;27;85732;-62
2021/10/01 06:34:36;;;;;;;1273.43;520.42;;;22.70;54.20;;;;;;6222975;27;86161;-63
2021/10/01 06:37:37;;;;;;;1309.80;515.53;;;22.60;53.60;;;;;;6200049;28;93486;-62
2021/10/01 06:40:37;;;;;;;1079.82;436.30;;;22.60;54.10;;;;;;6220231;28;85486;-62
2021/10/01 06:43:38;;;;;;;917.85;375.38;;;22.60;54.00;;;;;;6222127;28;88779;-62
2021/10/01 07:34:25;;;;;;;334.05;113.70;;;22.70;54.50;;;;;;6224937;27;85401;-63
2021/10/01 08:22:39;;;;;;;107.57;42.03;;;22.90;53.40;;;;;;6218938;28;84554;-63
2021/10/01 08:25:39;;;;;;;95.22;37.28;;;22.90;52.10;;;;;;6229744;28;83253;-66
2021/10/01 08:28:40;;;;;;;83.55;31.30;;;22.90;50.80;;;;;;6231300;27;83364;-65
2021/10/01 08:31:46;;;;;;;;;;;22.90;51.00;;;;;;6221912;28;90695;-63
2021/10/01 08:34:46;;;;;;;67.18;24.60;;;22.90;50.50;;;;;;6236097;27;82701;-64
2021/10/01 08:37:47;;;;;;;40.50;17.42;;;22.90;50.30;;;;;;6228613;28;85302;-64
2021/10/01 08:40:47;;;;;;;35.88;15.80;;;22.90;50.90;;;;;;6220696;28;83140;-64
2021/10/01 08:43:48;;;;;;;29.63;12.52;;;22.90;49.50;;;;;;6201900;28;84803;-63
2021/10/01 08:46:48;;;;;;;21.33;12.07;;;22.90;49.90;;;;;;6201734;28;83012;-64
2021/10/01 08:49:50;;;;;;;25.95;12.18;;;22.90;49.50;;;;;;6233561;27;85286;-63
2021/10/01 08:52:52;;;;;;;22.92;12.15;;;22.90;49.60;;;;;;6225189;27;84228;-64
2021/10/01 08:55:52;;;;;;;26.40;11.90;;;22.90;49.60;;;;;;6220551;27;83296;-63
2021/10/01 08:58:53;;;;;;;20.45;10.98;;;22.90;50.00;;;;;;6214604;27;83327;-64
2021/10/01 09:01:53;;;;;;;18.25;10.98;;;22.90;49.60;;;;;;6235137;27;83116;-64
2021/10/01 09:04:55;;;;;;;22.55;10.82;;;22.90;49.30;;;;;;6230889;27;83006;-62
2021/10/01 09:07:55;;;;;;;17.23;9.88;;;22.90;49.60;;;;;;6230565;27;82990;-62
2021/10/01 09:10:56;;;;;;;21.63;10.25;;;22.90;50.30;;;;;;6230781;27;83582;-62
2021/10/01 09:13:56;;;;;;;20.48;10.13;;;23.00;51.60;;;;;;6221376;27;83758;-61
2021/10/01 09:16:58;;;;;;;21.92;10.23;;;23.00;52.00;;;;;;6220388;27;83425;-62
2021/10/01 09:19:58;;;;;;;24.50;11.02;;;23.10;52.30;;;;;;6210488;28;83547;-62
2021/10/01 09:22:59;;;;;;;22.27;10.32;;;23.10;52.50;;;;;;6198730;28;83626;-63
2021/10/01 09:25:59;;;;;;;20.60;10.35;;;23.10;52.30;;;;;;6215891;28;84063;-64
2021/10/01 09:29:00;;;;;;;16.55;9.10;;;23.10;52.60;;;;;;6216183;28;86038;-64
2021/10/01 09:32:01;;;;;;;21.55;10.18;;;23.10;52.80;;;;;;6207669;28;82946;-62
2021/10/01 09:35:01;;;;;;;20.95;9.40;;;23.20;53.00;;;;;;6200616;28;83328;-61
2021/10/01 09:38:01;;;;;;;16.63;9.38;;;23.10;53.00;;;;;;6198136;28;83198;-61
2021/10/01 09:41:02;;;;;;;16.42;8.88;;;23.10;53.10;;;;;;6205853;27;81753;-61
2021/10/01 09:44:03;;;;;;;18.80;9.38;;;23.20;53.20;;;;;;6206212;27;80148;-61
2021/10/01 09:47:03;;;;;;;18.25;9.38;;;23.20;53.70;;;;;;6198174;27;81556;-61
2021/10/01 09:50:04;;;;;;;17.77;9.82;;;23.20;53.60;;;;;;6214096;28;80727;-62
2021/10/01 09:53:05;;;;;;;17.67;9.00;;;23.20;53.60;;;;;;6230199;27;82147;-63
2021/10/01 09:56:05;;;;;;;20.30;10.30;;;23.30;54.70;;;;;;6232456;27;82476;-62
2021/10/01 09:59:06;;;;;;;17.38;9.52;;;23.30;54.80;;;;;;6221706;28;83585;-62
2021/10/01 10:02:06;;;;;;;15.77;8.45;;;23.40;55.20;;;;;;6225248;27;84453;-62
2021/10/01 10:05:07;;;;;;;21.27;9.13;;;23.40;55.00;;;;;;6230208;27;80832;-62
2021/10/01 10:08:07;;;;;;;18.88;8.85;;;23.40;55.00;;;;;;6220132;28;80594;-63
2021/10/01 10:11:08;;;;;;;15.70;8.48;;;23.40;55.20;;;;;;6228080;28;80383;-62
2021/10/01 10:14:08;;;;;;;14.77;8.88;;;23.40;55.30;;;;;;6224675;28;80510;-62
2021/10/01 10:17:09;;;;;;;15.10;8.75;;;23.40;55.10;;;;;;6232404;28;81609;-62
2021/10/01 10:20:09;;;;;;;17.55;8.43;;;23.40;55.10;;;;;;6220143;28;81115;-62
2021/10/01 10:23:10;;;;;;;16.17;7.70;;;23.40;55.10;;;;;;6229626;27;80788;-62
2021/10/01 10:26:10;;;;;;;15.95;7.93;;;23.40;55.00;;;;;;6228440;27;83809;-62
2021/10/01 10:29:11;;;;;;;12.02;7.88;;;23.40;55.00;;;;;;6227763;27;82180;-62
2021/10/01 10:32:11;;;;;;;12.88;7.53;;;23.40;55.30;;;;;;6221401;28;82422;-61
2021/10/01 10:35:12;;;;;;;13.95;7.97;;;23.50;55.70;;;;;;6227458;28;80481;-61
2021/10/01 10:38:12;;;;;;;14.88;7.75;;;23.60;55.70;;;;;;6232291;27;80893;-62
2021/10/01 10:41:13;;;;;;;15.68;7.82;;;23.60;55.70;;;;;;6230468;28;80741;-62
2021/10/01 10:44:13;;;;;;;11.25;6.82;;;23.60;55.70;;;;;;6224806;27;80983;-63
2021/10/01 10:47:14;;;;;;;12.73;6.63;;;23.70;55.50;;;;;;6229571;28;82285;-63
2021/10/01 10:50:15;;;;;;;14.25;6.55;;;23.70;55.20;;;;;;6219608;28;82260;-62
2021/10/01 10:53:17;;;;;;;10.18;6.20;;;23.70;54.70;;;;;;6224777;27;80518;-64
2021/10/01 10:56:19;;;;;;;10.80;5.82;;;23.70;54.20;;;;;;6228527;27;80126;-62
2021/10/01 10:59:19;;;;;;;9.30;5.25;;;23.80;54.00;;;;;;6216150;28;82923;-64
2021/10/01 11:02:25;;;;;;;11.00;5.60;;;23.70;53.80;;;;;;6227880;27;80863;-63
2021/10/01 11:05:29;;;;;;;8.70;4.90;;;23.80;53.80;;;;;;6229065;28;81578;-63
2021/10/01 11:08:29;;;;;;;8.40;5.40;;;23.80;53.90;;;;;;6231005;27;80796;-63
2021/10/01 11:11:33;;;;;;;8.27;5.10;;;23.80;53.90;;;;;;6228795;28;81754;-63
2021/10/01 11:14:33;;;;;;;7.70;4.75;;;23.90;54.10;;;;;;6221345;28;80375;-64
2021/10/01 11:17:34;;;;;;;30.50;5.32;;;23.90;54.10;;;;;;6228559;28;82234;-63
2021/10/01 11:20:35;;;;;;;12.10;5.18;;;23.90;54.50;;;;;;6222668;27;80512;-65
2021/10/01 11:23:35;;;;;;;10.48;4.85;;;24.00;54.40;;;;;;6228419;28;80594;-63
2021/10/01 11:26:36;;;;;;;9.05;4.82;;;24.00;54.30;;;;;;6231662;27;80731;-64
2021/10/01 11:29:37;;;;;;;9.05;4.80;;;23.90;54.30;;;;;;6231708;28;80782;-63
2021/10/01 11:32:38;;;;;;;8.90;4.72;;;23.90;54.50;;;;;;6228446;28;80979;-61
2021/10/01 11:35:38;;;;;;;6.80;4.28;;;23.90;54.50;;;;;;6218978;28;81919;-63
2021/10/01 11:38:39;;;;;;;9.02;5.28;;;23.90;54.60;;;;;;6221325;28;80692;-62
2021/10/01 11:41:39;;;;;;;9.05;4.32;;;23.90;54.60;;;;;;6227159;27;81108;-64
2021/10/01 11:44:40;;;;;;;11.52;4.90;;;23.90;54.80;;;;;;6225403;28;80535;-63
2021/10/01 11:47:40;;;;;;;7.10;4.35;;;23.80;54.80;;;;;;6224958;27;81477;-63
2021/10/01 11:50:41;;;;;;;9.25;4.53;;;23.80;54.90;;;;;;6228473;28;80634;-63
2021/10/01 11:53:42;;;;;;;7.80;4.85;;;23.70;55.00;;;;;;6229129;27;80451;-62
2021/10/01 11:56:42;;;;;;;8.77;4.32;;;23.70;55.00;;;;;;6228883;27;80603;-64
2021/10/01 11:59:43;;;;;;;8.95;4.90;;;23.70;55.00;;;;;;6229993;27;80690;-62
2021/10/01 12:02:43;;;;;;;9.63;4.78;;;23.70;55.00;;;;;;6238077;28;80469;-63
2021/10/01 12:05:44;;;;;;;10.38;4.38;;;23.70;55.20;;;;;;6229143;28;80347;-62
2021/10/01 12:08:44;;;;;;;7.95;5.30;;;23.70;55.20;;;;;;6229332;28;81462;-63
2021/10/01 12:11:44;;;;;;;7.93;4.60;;;23.60;55.30;;;;;;6230389;28;80463;-64
2021/10/01 12:14:45;;;;;;;8.57;4.25;;;23.60;55.20;;;;;;6229566;28;81472;-63
2021/10/01 12:17:45;;;;;;;9.93;4.45;;;23.60;55.20;;;;;;6227912;28;82763;-63
2021/10/01 12:20:46;;;;;;;9.70;4.20;;;23.70;55.10;;;;;;6228602;28;81026;-63
2021/10/01 12:23:47;;;;;;;9.63;4.72;;;23.60;55.20;;;;;;6225912;27;83375;-63
2021/10/01 12:26:49;;;;;;;7.97;4.15;;;23.60;55.30;;;;;;6227076;27;80463;-64
2021/10/01 12:29:49;;;;;;;9.55;4.47;;;23.50;55.40;;;;;;6228772;28;80794;-63
2021/10/01 12:32:50;;;;;;;9.52;4.95;;;23.50;55.50;;;;;;6228487;28;82715;-64
2021/10/01 12:35:50;;;;;;;9.60;5.00;;;23.50;55.60;;;;;;6227305;28;81839;-65
2021/10/01 12:38:51;;;;;;;9.30;4.72;;;23.50;55.80;;;;;;6231274;28;80442;-65
2021/10/01 12:41:51;;;;;;;9.55;4.78;;;23.60;56.00;;;;;;6231893;28;81031;-64
2021/10/01 12:44:52;;;;;;;7.85;4.07;;;23.60;56.60;;;;;;6230283;28;80505;-67
2021/10/01 12:47:52;;;;;;;7.95;4.60;;;23.60;56.00;;;;;;6231984;28;80874;-65
2021/10/01 12:50:53;;;;;;;6.45;4.13;;;23.60;56.10;;;;;;6231516;28;81944;-64
2021/10/01 12:53:53;;;;;;;6.93;4.43;;;23.70;56.10;;;;;;6229597;28;81386;-64
2021/10/01 12:56:54;;;;;;;8.25;4.47;;;23.70;56.10;;;;;;6223875;27;81276;-64
2021/10/01 12:59:54;;;;;;;6.32;4.57;;;23.70;56.00;;;;;;6232798;27;80956;-64
2021/10/01 13:02:55;;;;;;;7.95;4.20;;;23.70;56.10;;;;;;6226648;28;81573;-64
2021/10/01 13:05:55;;;;;;;7.90;4.65;;;23.80;56.00;;;;;;6228724;28;81591;-65
2021/10/01 13:08:56;;;;;;;5.68;3.67;;;23.80;56.00;;;;;;6227964;27;81042;-63
2021/10/01 13:11:56;;;;;;;7.00;3.95;;;23.80;56.10;;;;;;6231685;27;80496;-65
2021/10/01 13:14:57;;;;;;;4.22;3.15;;;23.80;56.10;;;;;;6229841;27;82184;-66
2021/10/01 13:17:57;;;;;;;8.38;4.13;;;23.80;56.10;;;;;;6230730;28;80398;-65
2021/10/01 13:20:58;;;;;;;6.07;4.22;;;23.80;55.90;;;;;;6230128;27;80484;-64
2021/10/01 13:23:58;;;;;;;6.13;4.43;;;23.80;55.80;;;;;;6229082;27;80479;-64
2021/10/01 13:26:59;;;;;;;9.15;4.38;;;23.90;55.80;;;;;;6231575;28;81563;-65
2021/10/01 13:30:00;;;;;;;10.05;4.18;;;23.80;55.70;;;;;;6227451;28;80447;-64
2021/10/01 13:33:01;;;;;;;10.85;4.28;;;23.80;55.70;;;;;;6219989;28;80923;-65
2021/10/01 13:36:01;;;;;;;9.77;3.85;;;23.80;55.80;;;;;;6231068;27;81864;-66
2021/10/01 13:39:02;;;;;;;13.30;4.50;;;23.80;55.90;;;;;;6230612;27;80576;-63
2021/10/01 13:42:02;;;;;;;19.50;5.03;;;23.80;55.90;;;;;;6225772;27;80709;-64
2021/10/01 13:45:03;;;;;;;18.60;4.95;;;23.80;56.10;;;;;;6208223;28;81405;-63
2021/10/01 13:48:03;;;;;;;14.27;3.95;;;23.80;56.00;;;;;;6219870;28;80608;-63
2021/10/01 13:51:04;;;;;;;10.75;5.00;;;23.80;55.80;;;;;;6223604;28;80884;-64
2021/10/01 13:54:04;;;;;;;15.13;5.55;;;23.70;56.00;;;;;;6228834;27;80500;-63
2021/10/01 13:57:05;;;;;;;190.80;59.35;;;23.70;56.30;;;;;;6232913;28;80873;-63
2021/10/01 14:00:05;;;;;;;251.27;84.18;;;23.70;56.30;;;;;;6229743;27;83045;-63
2021/10/01 14:03:15;;;;;;;291.55;93.88;;;23.70;56.50;;;;;;6227869;27;83497;-64
2021/10/01 14:06:16;;;;;;;300.45;93.50;;;23.70;56.50;;;;;;6230119;27;83199;-63
2021/10/01 14:09:16;;;;;;;294.40;94.25;;;23.60;56.40;;;;;;6217225;28;83936;-64
2021/10/01 14:12:17;;;;;;;255.27;87.00;;;23.70;56.40;;;;;;6229063;27;84023;-63
2021/10/01 14:15:17;;;;;;;263.08;85.15;;;23.70;56.40;;;;;;6225324;27;84157;-63
2021/10/01 14:18:18;;;;;;;357.60;112.40;;;23.70;56.50;;;;;;6223708;28;84359;-64
2021/10/01 14:21:18;;;;;;;567.58;197.23;;;23.70;56.40;;;;;;6224908;27;85528;-64
2021/10/01 14:24:19;;;;;;;615.00;223.50;;;23.70;56.60;;;;;;6226913;27;85516;-63
2021/10/01 14:27:19;;;;;;;574.58;213.30;;;23.70;56.60;;;;;;6225426;28;85896;-64
2021/10/01 14:30:20;;;;;;;546.90;199.00;;;23.70;56.40;;;;;;6226630;27;85728;-62
2021/10/01 14:33:20;;;;;;;536.53;189.68;;;23.70;56.50;;;;;;6223855;27;86856;-62
2021/10/01 14:36:21;;;;;;;499.80;170.63;;;23.70;57.10;;;;;;6215592;28;85682;-62
2021/10/01 14:39:21;;;;;;;469.17;150.70;;;23.70;56.50;;;;;;6221911;28;86842;-62
2021/10/01 14:42:22;;;;;;;404.35;135.10;;;23.70;56.40;;;;;;6220527;28;86559;-62
2021/10/01 14:45:22;;;;;;;394.63;131.60;;;23.70;56.40;;;;;;6216950;28;87644;-63
2021/10/01 14:48:23;;;;;;;353.40;118.80;;;23.70;56.20;;;;;;6219207;27;86003;-63
2021/10/01 14:51:23;;;;;;;352.08;111.88;;;23.80;56.50;;;;;;6219032;28;86063;-63
2021/10/01 14:54:24;;;;;;;321.80;103.82;;;23.80;56.30;;;;;;6218862;27;86498;-64
2021/10/01 14:57:24;;;;;;;296.98;97.10;;;23.70;56.10;;;;;;6222530;27;86648;-63
2021/10/01 15:00:25;;;;;;;265.70;91.25;;;23.70;56.20;;;;;;6227700;28;86394;-62
2021/10/01 15:03:25;;;;;;;256.73;84.25;;;23.70;56.30;;;;;;6220391;28;84152;-63
2021/10/01 15:06:26;;;;;;;233.00;84.68;;;23.70;56.20;;;;;;6224755;28;83077;-62
2021/10/01 15:09:26;;;;;;;220.57;74.63;;;23.70;56.50;;;;;;6197885;28;83307;-64
2021/10/01 15:12:27;;;;;;;199.85;73.30;;;23.70;56.30;;;;;;6202726;28;83171;-63
2021/10/01 15:15:28;;;;;;;203.32;70.13;;;23.60;56.20;;;;;;6213995;28;84886;-64
2021/10/01 15:18:29;;;;;;;200.35;69.38;;;23.60;56.30;;;;;;6221124;28;83509;-63
2021/10/01 15:21:29;;;;;;;176.25;63.95;;;23.70;56.50;;;;;;6207583;27;84259;-63
2021/10/01 15:24:30;;;;;;;180.05;65.05;;;23.60;56.30;;;;;;6198891;28;83889;-62
2021/10/01 15:27:31;;;;;;;169.63;59.35;;;23.60;56.40;;;;;;6191886;28;83210;-63
2021/10/01 15:30:32;;;;;;;148.50;54.40;;;23.60;56.30;;;;;;6193522;28;84245;-63
2021/10/01 15:33:33;;;;;;;151.18;55.03;;;23.60;56.20;;;;;;6210708;28;85711;-62
2021/10/01 15:36:34;;;;;;;134.57;52.67;;;23.60;56.20;;;;;;6222314;28;86007;-63
2021/10/01 15:39:34;;;;;;;147.05;52.97;;;23.60;56.10;;;;;;6227078;28;85976;-63
2021/10/01 15:42:35;;;;;;;131.38;47.17;;;23.60;56.20;;;;;;6224422;28;84070;-63
2021/10/01 15:45:37;;;;;;;115.32;45.25;;;23.60;56.50;;;;;;6198014;28;83705;-63
2021/10/01 15:48:37;;;;;;;126.65;44.95;;;23.60;56.60;;;;;;6195965;28;83934;-64
2021/10/01 15:51:38;;;;;;;113.07;44.40;;;23.50;56.70;;;;;;6221484;28;83186;-63
2021/10/01 15:54:38;;;;;;;116.38;40.53;;;23.60;56.70;;;;;;6228760;27;83254;-64
2021/10/01 15:57:39;;;;;;;105.82;40.92;;;23.50;56.80;;;;;;6226977;28;82992;-63
2021/10/01 16:00:39;;;;;;;104.40;38.72;;;23.50;56.90;;;;;;6224749;27;83538;-64
2021/10/01 16:03:40;;;;;;;103.70;37.35;;;23.50;56.60;;;;;;6226575;28;83219;-65
2021/10/01 16:06:40;;;;;;;90.70;33.85;;;23.50;56.70;;;;;;6225504;28;84477;-65
2021/10/01 16:09:41;;;;;;;86.93;34.70;;;23.50;56.70;;;;;;6222771;28;83491;-65
2021/10/01 16:12:41;;;;;;;85.18;32.00;;;23.50;56.70;;;;;;6230383;27;85513;-66
2021/10/01 16:15:42;;;;;;;81.20;29.63;;;23.50;56.80;;;;;;6231019;27;83357;-65
2021/10/01 16:18:42;;;;;;;88.18;31.23;;;23.50;57.00;;;;;;6229790;27;84932;-65
2021/10/01 16:21:43;;;;;;;74.90;28.27;;;23.50;57.20;;;;;;6231217;27;82989;-66
2021/10/01 16:24:43;;;;;;;72.00;26.48;;;23.50;57.20;;;;;;6217315;27;86009;-64
2021/10/01 16:27:45;;;;;;;75.50;28.08;;;23.50;57.10;;;;;;6231683;27;83802;-65
2021/10/01 16:30:47;;;;;;;67.22;27.17;;;23.50;57.10;;;;;;6227788;28;84220;-64
2021/10/01 16:33:47;;;;;;;70.20;24.15;;;23.50;57.20;;;;;;6226787;28;83595;-64
2021/10/01 16:36:48;;;;;;;65.68;24.63;;;23.50;57.30;;;;;;6227246;28;84105;-65
2021/10/01 16:39:49;;;;;;;61.85;22.35;;;23.50;57.20;;;;;;6231261;27;83317;-64
2021/10/01 16:42:49;;;;;;;60.35;23.85;;;23.50;57.20;;;;;;6197754;28;89653;-64
2021/10/01 16:45:50;;;;;;;59.95;23.60;;;23.40;56.90;;;;;;6206769;28;83144;-64
2021/10/01 16:48:51;;;;;;;56.35;21.65;;;23.40;57.10;;;;;;6228290;28;83645;-69
2021/10/01 16:51:51;;;;;;;57.80;21.75;;;23.40;57.00;;;;;;6231675;27;85716;-65
2021/10/01 16:54:52;;;;;;;52.03;21.15;;;23.50;57.30;;;;;;6227519;27;83530;-65
2021/10/01 16:57:58;;;;;;;49.35;20.10;;;23.50;56.70;;;;;;6222243;28;83948;-65
2021/10/01 17:00:58;;;;;;;;;;;23.50;56.60;;;;;;6231686;27;83032;-65
2021/10/01 17:03:59;;;;;;;46.30;17.85;;;23.50;56.60;;;;;;6238073;28;83413;-65
2021/10/01 17:06:59;;;;;;;48.50;18.95;;;23.50;56.80;;;;;;6225909;28;84120;-64